sensor_id;sensor_type;location;lat;lon;timestamp;P1;durP1;ratioP1;P2;durP2;ratioP2
62401;SDS011;48440;51.224;22.506;2023-04-07T00:00:53;9.32;;;8.13;;
62401;SDS011;48440;51.224;22.506;2023-04-07T00:03:19;10.43;;;9.20;;
62401;SDS011;48440;51.224;22.506;2023-04-07T00:05:45;9.60;;;8.40;;
62401;SDS011;48440;51.224;22.506;2023-04-07T00:08:11;11.20;;;9.23;;
62401;SDS011;48440;51.224;22.506;2023-04-07T00:10:36;16.90;;;9.38;;
62401;SDS011;48440;51.224;22.506;2023-04-07T00:13:02;10.18;;;8.88;;
62401;SDS011;48440;51.224;22.506;2023-04-07T00:15:27;10.23;;;9.18;;
62401;SDS011;48440;51.224;22.506;2023-04-07T00:17:53;11.93;;;9.80;;
62401;SDS011;48440;51.224;22.506;2023-04-07T00:20:18;11.43;;;9.15;;
62401;SDS011;48440;51.224;22.506;2023-04-07T00:22:44;11.85;;;9.55;;
62401;SDS011;48440;51.224;22.506;2023-04-07T00:25:09;11.00;;;8.98;;
62401;SDS011;48440;51.224;22.506;2023-04-07T00:27:35;9.73;;;8.73;;
62401;SDS011;48440;51.224;22.506;2023-04-07T00:30:00;11.68;;;9.52;;
62401;SDS011;48440;51.224;22.506;2023-04-07T00:32:26;11.18;;;9.82;;
62401;SDS011;48440;51.224;22.506;2023-04-07T00:34:51;10.80;;;9.68;;
62401;SDS011;48440;51.224;22.506;2023-04-07T00:37:17;11.35;;;9.02;;
62401;SDS011;48440;51.224;22.506;2023-04-07T00:39:43;12.40;;;10.05;;
62401;SDS011;48440;51.224;22.506;2023-04-07T00:42:09;13.63;;;10.55;;
62401;SDS011;48440;51.224;22.506;2023-04-07T00:44:35;11.30;;;9.88;;
62401;SDS011;48440;51.224;22.506;2023-04-07T00:47:00;11.82;;;9.25;;
62401;SDS011;48440;51.224;22.506;2023-04-07T00:49:26;12.00;;;10.13;;
62401;SDS011;48440;51.224;22.506;2023-04-07T00:51:53;11.80;;;9.73;;
62401;SDS011;48440;51.224;22.506;2023-04-07T00:54:19;11.35;;;9.95;;
62401;SDS011;48440;51.224;22.506;2023-04-07T00:56:47;10.93;;;9.63;;
62401;SDS011;48440;51.224;22.506;2023-04-07T00:59:12;10.20;;;9.13;;
62401;SDS011;48440;51.224;22.506;2023-04-07T01:01:46;10.32;;;9.07;;
62401;SDS011;48440;51.224;22.506;2023-04-07T01:04:26;11.32;;;9.93;;
62401;SDS011;48440;51.224;22.506;2023-04-07T01:07:03;11.50;;;10.20;;
62401;SDS011;48440;51.224;22.506;2023-04-07T01:09:38;11.48;;;10.07;;
62401;SDS011;48440;51.224;22.506;2023-04-07T01:14:52;11.70;;;10.43;;
62401;SDS011;48440;51.224;22.506;2023-04-07T01:17:22;11.43;;;8.93;;
62401;SDS011;48440;51.224;22.506;2023-04-07T01:19:58;12.57;;;10.57;;
62401;SDS011;48440;51.224;22.506;2023-04-07T01:22:34;12.55;;;10.45;;
62401;SDS011;48440;51.224;22.506;2023-04-07T01:25:12;11.07;;;9.48;;
62401;SDS011;48440;51.224;22.506;2023-04-07T01:30:30;12.68;;;10.27;;
62401;SDS011;48440;51.224;22.506;2023-04-07T01:32:57;12.75;;;10.75;;
62401;SDS011;48440;51.224;22.506;2023-04-07T01:35:24;10.63;;;9.50;;
62401;SDS011;48440;51.224;22.506;2023-04-07T01:37:53;13.00;;;10.48;;
62401;SDS011;48440;51.224;22.506;2023-04-07T01:40:20;12.02;;;10.05;;
62401;SDS011;48440;51.224;22.506;2023-04-07T01:42:46;11.48;;;10.25;;
62401;SDS011;48440;51.224;22.506;2023-04-07T01:45:14;14.40;;;10.95;;
62401;SDS011;48440;51.224;22.506;2023-04-07T01:47:40;12.63;;;10.88;;
62401;SDS011;48440;51.224;22.506;2023-04-07T01:50:07;11.88;;;10.50;;
62401;SDS011;48440;51.224;22.506;2023-04-07T01:52:35;12.57;;;10.18;;
62401;SDS011;48440;51.224;22.506;2023-04-07T01:55:02;12.98;;;10.23;;
62401;SDS011;48440;51.224;22.506;2023-04-07T01:57:29;11.45;;;10.25;;
62401;SDS011;48440;51.224;22.506;2023-04-07T01:59:54;12.57;;;10.32;;
62401;SDS011;48440;51.224;22.506;2023-04-07T02:02:20;12.52;;;9.88;;
62401;SDS011;48440;51.224;22.506;2023-04-07T02:07:18;12.55;;;10.27;;
62401;SDS011;48440;51.224;22.506;2023-04-07T02:09:49;13.13;;;11.43;;
62401;SDS011;48440;51.224;22.506;2023-04-07T02:12:17;13.82;;;11.18;;
62401;SDS011;48440;51.224;22.506;2023-04-07T02:14:43;16.52;;;11.20;;
62401;SDS011;48440;51.224;22.506;2023-04-07T02:17:09;10.57;;;9.27;;
62401;SDS011;48440;51.224;22.506;2023-04-07T02:19:37;12.93;;;11.18;;
62401;SDS011;48440;51.224;22.506;2023-04-07T02:22:03;13.07;;;11.13;;
62401;SDS011;48440;51.224;22.506;2023-04-07T02:24:30;12.73;;;10.80;;
62401;SDS011;48440;51.224;22.506;2023-04-07T02:26:55;11.85;;;10.18;;
62401;SDS011;48440;51.224;22.506;2023-04-07T02:29:21;12.75;;;10.75;;
62401;SDS011;48440;51.224;22.506;2023-04-07T02:31:47;13.35;;;11.73;;
62401;SDS011;48440;51.224;22.506;2023-04-07T02:34:12;14.13;;;10.98;;
62401;SDS011;48440;51.224;22.506;2023-04-07T02:36:37;12.60;;;11.25;;
62401;SDS011;48440;51.224;22.506;2023-04-07T02:39:03;14.07;;;11.32;;
62401;SDS011;48440;51.224;22.506;2023-04-07T02:41:28;14.30;;;10.88;;
62401;SDS011;48440;51.224;22.506;2023-04-07T02:43:54;12.98;;;10.88;;
62401;SDS011;48440;51.224;22.506;2023-04-07T02:46:19;14.40;;;11.50;;
62401;SDS011;48440;51.224;22.506;2023-04-07T02:48:44;12.63;;;10.57;;
62401;SDS011;48440;51.224;22.506;2023-04-07T02:51:10;13.85;;;12.18;;
62401;SDS011;48440;51.224;22.506;2023-04-07T02:53:35;14.55;;;12.38;;
62401;SDS011;48440;51.224;22.506;2023-04-07T02:56:01;15.38;;;13.02;;
62401;SDS011;48440;51.224;22.506;2023-04-07T02:58:26;16.63;;;12.77;;
62401;SDS011;48440;51.224;22.506;2023-04-07T03:00:51;13.93;;;12.00;;
62401;SDS011;48440;51.224;22.506;2023-04-07T03:03:17;16.10;;;13.40;;
62401;SDS011;48440;51.224;22.506;2023-04-07T03:05:42;16.98;;;12.95;;
62401;SDS011;48440;51.224;22.506;2023-04-07T03:08:07;14.13;;;12.00;;
62401;SDS011;48440;51.224;22.506;2023-04-07T03:10:33;14.73;;;11.88;;
62401;SDS011;48440;51.224;22.506;2023-04-07T03:12:58;14.63;;;12.02;;
62401;SDS011;48440;51.224;22.506;2023-04-07T03:15:24;12.13;;;10.88;;
62401;SDS011;48440;51.224;22.506;2023-04-07T03:17:49;16.55;;;11.98;;
62401;SDS011;48440;51.224;22.506;2023-04-07T03:20:15;15.05;;;12.07;;
62401;SDS011;48440;51.224;22.506;2023-04-07T03:22:41;14.98;;;12.52;;
62401;SDS011;48440;51.224;22.506;2023-04-07T03:25:08;14.05;;;11.05;;
62401;SDS011;48440;51.224;22.506;2023-04-07T03:27:35;15.40;;;11.98;;
62401;SDS011;48440;51.224;22.506;2023-04-07T03:30:00;16.65;;;11.73;;
62401;SDS011;48440;51.224;22.506;2023-04-07T03:32:26;16.30;;;12.35;;
62401;SDS011;48440;51.224;22.506;2023-04-07T03:34:51;13.73;;;11.25;;
62401;SDS011;48440;51.224;22.506;2023-04-07T03:37:17;13.02;;;10.55;;
62401;SDS011;48440;51.224;22.506;2023-04-07T03:39:42;16.27;;;11.85;;
62401;SDS011;48440;51.224;22.506;2023-04-07T03:42:07;15.75;;;11.05;;
62401;SDS011;48440;51.224;22.506;2023-04-07T03:44:33;14.45;;;11.63;;
62401;SDS011;48440;51.224;22.506;2023-04-07T03:46:59;14.85;;;11.57;;
62401;SDS011;48440;51.224;22.506;2023-04-07T03:49:24;13.73;;;10.63;;
62401;SDS011;48440;51.224;22.506;2023-04-07T03:51:51;13.65;;;10.57;;
62401;SDS011;48440;51.224;22.506;2023-04-07T03:54:16;11.35;;;9.43;;
62401;SDS011;48440;51.224;22.506;2023-04-07T03:56:42;13.20;;;10.32;;
62401;SDS011;48440;51.224;22.506;2023-04-07T03:59:07;10.80;;;9.32;;
62401;SDS011;48440;51.224;22.506;2023-04-07T04:01:33;10.93;;;9.38;;
62401;SDS011;48440;51.224;22.506;2023-04-07T04:03:58;12.60;;;10.10;;
62401;SDS011;48440;51.224;22.506;2023-04-07T04:06:24;12.07;;;9.05;;
62401;SDS011;48440;51.224;22.506;2023-04-07T04:08:51;12.68;;;10.40;;
62401;SDS011;48440;51.224;22.506;2023-04-07T04:11:16;12.18;;;9.30;;
62401;SDS011;48440;51.224;22.506;2023-04-07T04:13:42;11.95;;;9.35;;
62401;SDS011;48440;51.224;22.506;2023-04-07T04:16:07;8.73;;;7.82;;
62401;SDS011;48440;51.224;22.506;2023-04-07T04:18:33;10.40;;;8.90;;
62401;SDS011;48440;51.224;22.506;2023-04-07T04:20:58;11.88;;;10.13;;
62401;SDS011;48440;51.224;22.506;2023-04-07T04:23:24;10.85;;;9.50;;
62401;SDS011;48440;51.224;22.506;2023-04-07T04:25:49;10.10;;;8.48;;
62401;SDS011;48440;51.224;22.506;2023-04-07T04:28:15;9.85;;;8.85;;
62401;SDS011;48440;51.224;22.506;2023-04-07T04:30:41;9.35;;;7.95;;
62401;SDS011;48440;51.224;22.506;2023-04-07T04:33:06;11.30;;;9.05;;
62401;SDS011;48440;51.224;22.506;2023-04-07T04:35:32;10.75;;;8.98;;
62401;SDS011;48440;51.224;22.506;2023-04-07T04:37:58;10.52;;;9.43;;
62401;SDS011;48440;51.224;22.506;2023-04-07T04:40:23;10.63;;;9.07;;
62401;SDS011;48440;51.224;22.506;2023-04-07T04:42:49;10.05;;;8.90;;
62401;SDS011;48440;51.224;22.506;2023-04-07T04:45:14;13.45;;;10.40;;
62401;SDS011;48440;51.224;22.506;2023-04-07T04:47:40;12.77;;;10.40;;
62401;SDS011;48440;51.224;22.506;2023-04-07T04:50:08;14.48;;;11.20;;
62401;SDS011;48440;51.224;22.506;2023-04-07T04:52:34;16.45;;;12.35;;
62401;SDS011;48440;51.224;22.506;2023-04-07T04:54:59;15.68;;;12.45;;
62401;SDS011;48440;51.224;22.506;2023-04-07T04:57:25;16.02;;;11.75;;
62401;SDS011;48440;51.224;22.506;2023-04-07T04:59:50;18.17;;;12.85;;
62401;SDS011;48440;51.224;22.506;2023-04-07T05:02:16;18.13;;;12.07;;
62401;SDS011;48440;51.224;22.506;2023-04-07T05:04:41;18.75;;;12.95;;
62401;SDS011;48440;51.224;22.506;2023-04-07T05:07:07;16.50;;;12.73;;
62401;SDS011;48440;51.224;22.506;2023-04-07T05:09:32;19.83;;;14.10;;
62401;SDS011;48440;51.224;22.506;2023-04-07T05:11:57;19.00;;;14.27;;
62401;SDS011;48440;51.224;22.506;2023-04-07T05:14:23;21.48;;;14.18;;
62401;SDS011;48440;51.224;22.506;2023-04-07T05:16:48;22.67;;;14.60;;
62401;SDS011;48440;51.224;22.506;2023-04-07T05:19:13;21.35;;;14.80;;
62401;SDS011;48440;51.224;22.506;2023-04-07T05:21:39;21.25;;;15.23;;
62401;SDS011;48440;51.224;22.506;2023-04-07T05:24:05;21.35;;;15.40;;
62401;SDS011;48440;51.224;22.506;2023-04-07T05:26:30;25.38;;;16.42;;
62401;SDS011;48440;51.224;22.506;2023-04-07T05:28:55;22.70;;;15.68;;
62401;SDS011;48440;51.224;22.506;2023-04-07T05:31:21;24.60;;;16.23;;
62401;SDS011;48440;51.224;22.506;2023-04-07T05:33:46;27.73;;;16.83;;
62401;SDS011;48440;51.224;22.506;2023-04-07T05:36:12;26.80;;;18.15;;
62401;SDS011;48440;51.224;22.506;2023-04-07T05:38:37;25.27;;;16.00;;
62401;SDS011;48440;51.224;22.506;2023-04-07T05:41:02;28.92;;;17.73;;
62401;SDS011;48440;51.224;22.506;2023-04-07T05:43:28;26.05;;;16.33;;
62401;SDS011;48440;51.224;22.506;2023-04-07T05:45:53;26.38;;;16.83;;
62401;SDS011;48440;51.224;22.506;2023-04-07T05:48:19;32.15;;;19.13;;
62401;SDS011;48440;51.224;22.506;2023-04-07T05:50:44;31.25;;;18.38;;
62401;SDS011;48440;51.224;22.506;2023-04-07T05:53:10;33.60;;;18.33;;
62401;SDS011;48440;51.224;22.506;2023-04-07T05:55:35;34.58;;;19.17;;
62401;SDS011;48440;51.224;22.506;2023-04-07T05:58:01;34.60;;;19.75;;
62401;SDS011;48440;51.224;22.506;2023-04-07T06:00:26;33.60;;;19.25;;
62401;SDS011;48440;51.224;22.506;2023-04-07T06:02:52;36.30;;;20.40;;
62401;SDS011;48440;51.224;22.506;2023-04-07T06:05:17;38.60;;;19.70;;
62401;SDS011;48440;51.224;22.506;2023-04-07T06:07:43;34.88;;;18.90;;
62401;SDS011;48440;51.224;22.506;2023-04-07T06:10:08;38.45;;;19.88;;
62401;SDS011;48440;51.224;22.506;2023-04-07T06:12:34;39.08;;;19.70;;
62401;SDS011;48440;51.224;22.506;2023-04-07T06:14:59;37.47;;;19.65;;
62401;SDS011;48440;51.224;22.506;2023-04-07T06:17:25;40.08;;;21.85;;
62401;SDS011;48440;51.224;22.506;2023-04-07T06:19:50;48.58;;;22.92;;
62401;SDS011;48440;51.224;22.506;2023-04-07T06:22:16;49.00;;;23.02;;
62401;SDS011;48440;51.224;22.506;2023-04-07T06:24:41;58.03;;;25.58;;
62401;SDS011;48440;51.224;22.506;2023-04-07T06:27:07;58.72;;;24.70;;
62401;SDS011;48440;51.224;22.506;2023-04-07T06:29:32;61.25;;;25.95;;
62401;SDS011;48440;51.224;22.506;2023-04-07T06:31:58;62.85;;;25.85;;
62401;SDS011;48440;51.224;22.506;2023-04-07T06:34:24;74.32;;;27.52;;
62401;SDS011;48440;51.224;22.506;2023-04-07T06:36:49;64.35;;;25.75;;
62401;SDS011;48440;51.224;22.506;2023-04-07T06:39:14;74.70;;;24.90;;
62401;SDS011;48440;51.224;22.506;2023-04-07T06:41:40;55.45;;;24.00;;
62401;SDS011;48440;51.224;22.506;2023-04-07T06:44:08;50.25;;;22.77;;
62401;SDS011;48440;51.224;22.506;2023-04-07T06:46:35;48.42;;;21.55;;
62401;SDS011;48440;51.224;22.506;2023-04-07T06:49:01;37.35;;;19.67;;
62401;SDS011;48440;51.224;22.506;2023-04-07T06:51:27;46.08;;;20.63;;
62401;SDS011;48440;51.224;22.506;2023-04-07T06:53:53;39.38;;;19.77;;
62401;SDS011;48440;51.224;22.506;2023-04-07T06:56:19;42.28;;;19.73;;
62401;SDS011;48440;51.224;22.506;2023-04-07T06:58:45;36.53;;;18.30;;
62401;SDS011;48440;51.224;22.506;2023-04-07T07:01:11;31.85;;;17.13;;
62401;SDS011;48440;51.224;22.506;2023-04-07T07:03:36;31.88;;;16.90;;
62401;SDS011;48440;51.224;22.506;2023-04-07T07:06:02;34.00;;;17.85;;
62401;SDS011;48440;51.224;22.506;2023-04-07T07:08:27;29.50;;;16.70;;
62401;SDS011;48440;51.224;22.506;2023-04-07T07:10:53;32.08;;;17.73;;
62401;SDS011;48440;51.224;22.506;2023-04-07T07:13:21;25.45;;;16.52;;
62401;SDS011;48440;51.224;22.506;2023-04-07T07:15:47;28.10;;;16.10;;
62401;SDS011;48440;51.224;22.506;2023-04-07T07:18:13;31.63;;;17.08;;
62401;SDS011;48440;51.224;22.506;2023-04-07T07:20:39;30.20;;;16.85;;
62401;SDS011;48440;51.224;22.506;2023-04-07T07:23:05;25.80;;;16.95;;
62401;SDS011;48440;51.224;22.506;2023-04-07T07:25:31;27.98;;;17.15;;
62401;SDS011;48440;51.224;22.506;2023-04-07T07:27:56;28.20;;;17.63;;
62401;SDS011;48440;51.224;22.506;2023-04-07T07:30:22;28.17;;;17.98;;
62401;SDS011;48440;51.224;22.506;2023-04-07T07:32:49;27.48;;;17.38;;
62401;SDS011;48440;51.224;22.506;2023-04-07T07:35:15;27.58;;;16.55;;
62401;SDS011;48440;51.224;22.506;2023-04-07T07:37:41;18.85;;;12.38;;
62401;SDS011;48440;51.224;22.506;2023-04-07T07:40:08;18.02;;;11.00;;
62401;SDS011;48440;51.224;22.506;2023-04-07T07:42:35;13.60;;;8.63;;
62401;SDS011;48440;51.224;22.506;2023-04-07T07:45:01;12.70;;;7.53;;
62401;SDS011;48440;51.224;22.506;2023-04-07T07:47:26;11.23;;;6.57;;
62401;SDS011;48440;51.224;22.506;2023-04-07T07:49:52;9.18;;;6.75;;
62401;SDS011;48440;51.224;22.506;2023-04-07T07:52:18;9.82;;;6.70;;
62401;SDS011;48440;51.224;22.506;2023-04-07T07:54:45;8.77;;;6.18;;
62401;SDS011;48440;51.224;22.506;2023-04-07T07:57:12;10.57;;;6.25;;
62401;SDS011;48440;51.224;22.506;2023-04-07T07:59:38;12.68;;;6.43;;
62401;SDS011;48440;51.224;22.506;2023-04-07T08:02:05;9.38;;;5.95;;
62401;SDS011;48440;51.224;22.506;2023-04-07T08:04:35;11.07;;;6.28;;
62401;SDS011;48440;51.224;22.506;2023-04-07T08:07:01;9.70;;;6.40;;
62401;SDS011;48440;51.224;22.506;2023-04-07T08:09:27;10.60;;;6.50;;
62401;SDS011;48440;51.224;22.506;2023-04-07T08:11:53;13.88;;;6.65;;
62401;SDS011;48440;51.224;22.506;2023-04-07T08:14:19;10.48;;;6.30;;
62401;SDS011;48440;51.224;22.506;2023-04-07T08:16:45;10.00;;;6.32;;
62401;SDS011;48440;51.224;22.506;2023-04-07T08:19:11;10.32;;;6.60;;
62401;SDS011;48440;51.224;22.506;2023-04-07T08:21:38;11.43;;;6.50;;
62401;SDS011;48440;51.224;22.506;2023-04-07T08:24:04;11.73;;;6.35;;
62401;SDS011;48440;51.224;22.506;2023-04-07T08:26:30;12.57;;;7.30;;
62401;SDS011;48440;51.224;22.506;2023-04-07T08:28:55;13.60;;;7.15;;
62401;SDS011;48440;51.224;22.506;2023-04-07T08:31:22;14.95;;;6.90;;
62401;SDS011;48440;51.224;22.506;2023-04-07T08:33:48;15.30;;;7.10;;
62401;SDS011;48440;51.224;22.506;2023-04-07T08:36:17;15.88;;;7.18;;
62401;SDS011;48440;51.224;22.506;2023-04-07T08:38:44;11.93;;;5.95;;
62401;SDS011;48440;51.224;22.506;2023-04-07T08:41:10;11.65;;;6.25;;
62401;SDS011;48440;51.224;22.506;2023-04-07T08:43:37;9.05;;;5.13;;
62401;SDS011;48440;51.224;22.506;2023-04-07T08:46:03;8.18;;;5.45;;
62401;SDS011;48440;51.224;22.506;2023-04-07T08:48:30;8.25;;;5.40;;
62401;SDS011;48440;51.224;22.506;2023-04-07T08:51:05;9.63;;;5.30;;
62401;SDS011;48440;51.224;22.506;2023-04-07T08:53:40;9.82;;;6.25;;
62401;SDS011;48440;51.224;22.506;2023-04-07T08:56:14;9.02;;;5.95;;
62401;SDS011;48440;51.224;22.506;2023-04-07T08:58:41;11.30;;;6.30;;
62401;SDS011;48440;51.224;22.506;2023-04-07T09:01:07;12.00;;;6.78;;
62401;SDS011;48440;51.224;22.506;2023-04-07T09:03:33;11.73;;;6.45;;
62401;SDS011;48440;51.224;22.506;2023-04-07T09:05:59;12.80;;;6.68;;
62401;SDS011;48440;51.224;22.506;2023-04-07T09:08:25;11.68;;;6.82;;
62401;SDS011;48440;51.224;22.506;2023-04-07T09:10:51;8.32;;;5.88;;
62401;SDS011;48440;51.224;22.506;2023-04-07T09:13:16;9.15;;;5.25;;
62401;SDS011;48440;51.224;22.506;2023-04-07T09:15:41;9.73;;;6.05;;
62401;SDS011;48440;51.224;22.506;2023-04-07T09:18:07;9.82;;;5.38;;
62401;SDS011;48440;51.224;22.506;2023-04-07T09:25:57;10.18;;;5.88;;
62401;SDS011;48440;51.224;22.506;2023-04-07T09:28:24;13.23;;;6.82;;
62401;SDS011;48440;51.224;22.506;2023-04-07T09:30:53;14.90;;;6.85;;
62401;SDS011;48440;51.224;22.506;2023-04-07T09:33:29;14.73;;;6.65;;
62401;SDS011;48440;51.224;22.506;2023-04-07T09:35:54;15.20;;;7.00;;
62401;SDS011;48440;51.224;22.506;2023-04-07T09:38:20;11.02;;;6.13;;
62401;SDS011;48440;51.224;22.506;2023-04-07T09:40:46;13.75;;;6.53;;
62401;SDS011;48440;51.224;22.506;2023-04-07T09:43:17;10.80;;;5.93;;
62401;SDS011;48440;51.224;22.506;2023-04-07T09:45:43;11.93;;;6.72;;
62401;SDS011;48440;51.224;22.506;2023-04-07T09:48:19;12.85;;;5.93;;
62401;SDS011;48440;51.224;22.506;2023-04-07T09:50:45;14.80;;;5.78;;
62401;SDS011;48440;51.224;22.506;2023-04-07T09:53:16;12.38;;;6.50;;
62401;SDS011;48440;51.224;22.506;2023-04-07T09:55:43;11.20;;;5.60;;
62401;SDS011;48440;51.224;22.506;2023-04-07T09:58:11;10.95;;;5.78;;
62401;SDS011;48440;51.224;22.506;2023-04-07T10:00:41;11.65;;;5.75;;
62401;SDS011;48440;51.224;22.506;2023-04-07T10:03:06;11.07;;;5.82;;
62401;SDS011;48440;51.224;22.506;2023-04-07T10:05:33;15.45;;;6.97;;
62401;SDS011;48440;51.224;22.506;2023-04-07T10:08:00;11.98;;;5.80;;
62401;SDS011;48440;51.224;22.506;2023-04-07T10:10:26;9.93;;;4.75;;
62401;SDS011;48440;51.224;22.506;2023-04-07T10:12:54;9.93;;;5.63;;
62401;SDS011;48440;51.224;22.506;2023-04-07T10:15:21;9.73;;;5.05;;
62401;SDS011;48440;51.224;22.506;2023-04-07T10:17:47;11.90;;;5.72;;
62401;SDS011;48440;51.224;22.506;2023-04-07T10:20:14;11.57;;;5.78;;
62401;SDS011;48440;51.224;22.506;2023-04-07T10:22:44;12.25;;;6.40;;
62401;SDS011;48440;51.224;22.506;2023-04-07T10:25:13;16.13;;;5.90;;
62401;SDS011;48440;51.224;22.506;2023-04-07T10:27:44;11.90;;;6.85;;
62401;SDS011;48440;51.224;22.506;2023-04-07T10:30:24;13.43;;;6.75;;
62401;SDS011;48440;51.224;22.506;2023-04-07T10:35:20;15.98;;;6.07;;
62401;SDS011;48440;51.224;22.506;2023-04-07T10:40:34;18.33;;;6.10;;
62401;SDS011;48440;51.224;22.506;2023-04-07T10:43:01;13.15;;;5.72;;
62401;SDS011;48440;51.224;22.506;2023-04-07T10:48:11;13.90;;;6.20;;
62401;SDS011;48440;51.224;22.506;2023-04-07T10:50:38;13.90;;;6.13;;
62401;SDS011;48440;51.224;22.506;2023-04-07T10:53:09;15.75;;;6.78;;
62401;SDS011;48440;51.224;22.506;2023-04-07T11:03:23;17.38;;;6.72;;
62401;SDS011;48440;51.224;22.506;2023-04-07T11:05:49;12.93;;;5.82;;
62401;SDS011;48440;51.224;22.506;2023-04-07T11:08:14;16.02;;;6.30;;
62401;SDS011;48440;51.224;22.506;2023-04-07T11:10:40;12.65;;;5.70;;
62401;SDS011;48440;51.224;22.506;2023-04-07T11:13:12;11.68;;;5.63;;
62401;SDS011;48440;51.224;22.506;2023-04-07T11:15:37;10.55;;;5.30;;
62401;SDS011;48440;51.224;22.506;2023-04-07T11:18:07;10.05;;;4.90;;
62401;SDS011;48440;51.224;22.506;2023-04-07T11:20:44;11.13;;;4.90;;
62401;SDS011;48440;51.224;22.506;2023-04-07T11:23:16;11.23;;;5.05;;
62401;SDS011;48440;51.224;22.506;2023-04-07T11:25:43;11.63;;;5.18;;
62401;SDS011;48440;51.224;22.506;2023-04-07T11:28:11;10.38;;;5.07;;
62401;SDS011;48440;51.224;22.506;2023-04-07T11:30:37;9.43;;;4.95;;
62401;SDS011;48440;51.224;22.506;2023-04-07T11:33:03;10.75;;;5.47;;
62401;SDS011;48440;51.224;22.506;2023-04-07T11:35:29;9.27;;;4.90;;
62401;SDS011;48440;51.224;22.506;2023-04-07T11:37:56;11.23;;;4.95;;
62401;SDS011;48440;51.224;22.506;2023-04-07T11:40:32;12.90;;;5.57;;
62401;SDS011;48440;51.224;22.506;2023-04-07T11:42:59;8.45;;;4.40;;
62401;SDS011;48440;51.224;22.506;2023-04-07T11:45:26;8.43;;;4.60;;
62401;SDS011;48440;51.224;22.506;2023-04-07T11:47:51;8.95;;;4.70;;
62401;SDS011;48440;51.224;22.506;2023-04-07T11:50:17;11.07;;;5.75;;
62401;SDS011;48440;51.224;22.506;2023-04-07T11:53:02;9.50;;;5.40;;
62401;SDS011;48440;51.224;22.506;2023-04-07T11:55:28;8.52;;;5.00;;
62401;SDS011;48440;51.224;22.506;2023-04-07T11:57:53;11.43;;;5.38;;
62401;SDS011;48440;51.224;22.506;2023-04-07T12:00:19;12.23;;;4.85;;
62401;SDS011;48440;51.224;22.506;2023-04-07T12:02:45;11.07;;;5.00;;
62401;SDS011;48440;51.224;22.506;2023-04-07T12:05:11;14.40;;;5.10;;
62401;SDS011;48440;51.224;22.506;2023-04-07T12:07:37;11.68;;;5.47;;
62401;SDS011;48440;51.224;22.506;2023-04-07T12:10:20;11.45;;;5.55;;
62401;SDS011;48440;51.224;22.506;2023-04-07T12:12:47;13.98;;;6.00;;
62401;SDS011;48440;51.224;22.506;2023-04-07T12:15:13;13.88;;;6.82;;
62401;SDS011;48440;51.224;22.506;2023-04-07T12:17:43;15.63;;;6.68;;
62401;SDS011;48440;51.224;22.506;2023-04-07T12:20:13;15.13;;;7.53;;
62401;SDS011;48440;51.224;22.506;2023-04-07T12:22:40;14.85;;;7.10;;
62401;SDS011;48440;51.224;22.506;2023-04-07T12:25:06;12.65;;;6.72;;
62401;SDS011;48440;51.224;22.506;2023-04-07T12:27:32;13.15;;;6.68;;
62401;SDS011;48440;51.224;22.506;2023-04-07T12:29:57;13.60;;;6.78;;
62401;SDS011;48440;51.224;22.506;2023-04-07T12:32:23;12.00;;;6.10;;
62401;SDS011;48440;51.224;22.506;2023-04-07T12:34:49;11.27;;;5.35;;
62401;SDS011;48440;51.224;22.506;2023-04-07T12:37:15;9.85;;;5.10;;
62401;SDS011;48440;51.224;22.506;2023-04-07T12:39:41;10.60;;;5.68;;
62401;SDS011;48440;51.224;22.506;2023-04-07T12:42:06;12.07;;;6.85;;
62401;SDS011;48440;51.224;22.506;2023-04-07T12:44:35;9.35;;;5.60;;
62401;SDS011;48440;51.224;22.506;2023-04-07T12:47:01;11.30;;;6.38;;
62401;SDS011;48440;51.224;22.506;2023-04-07T12:49:27;12.23;;;6.30;;
62401;SDS011;48440;51.224;22.506;2023-04-07T12:51:52;10.40;;;6.15;;
62401;SDS011;48440;51.224;22.506;2023-04-07T12:54:17;9.88;;;5.18;;
62401;SDS011;48440;51.224;22.506;2023-04-07T12:56:43;12.20;;;5.75;;
62401;SDS011;48440;51.224;22.506;2023-04-07T12:59:08;11.27;;;5.70;;
62401;SDS011;48440;51.224;22.506;2023-04-07T13:01:34;11.55;;;6.45;;
62401;SDS011;48440;51.224;22.506;2023-04-07T13:04:01;11.70;;;5.95;;
62401;SDS011;48440;51.224;22.506;2023-04-07T13:06:27;13.73;;;6.70;;
62401;SDS011;48440;51.224;22.506;2023-04-07T13:08:52;13.30;;;6.78;;
62401;SDS011;48440;51.224;22.506;2023-04-07T13:11:17;13.82;;;6.20;;
62401;SDS011;48440;51.224;22.506;2023-04-07T13:13:43;11.10;;;5.90;;
62401;SDS011;48440;51.224;22.506;2023-04-07T13:16:09;12.00;;;6.70;;
62401;SDS011;48440;51.224;22.506;2023-04-07T13:18:34;9.70;;;5.85;;
62401;SDS011;48440;51.224;22.506;2023-04-07T13:21:00;16.80;;;7.07;;
62401;SDS011;48440;51.224;22.506;2023-04-07T13:23:26;12.60;;;6.57;;
62401;SDS011;48440;51.224;22.506;2023-04-07T13:25:51;12.20;;;6.13;;
62401;SDS011;48440;51.224;22.506;2023-04-07T13:28:17;11.25;;;6.47;;
62401;SDS011;48440;51.224;22.506;2023-04-07T13:30:44;14.55;;;7.07;;
62401;SDS011;48440;51.224;22.506;2023-04-07T13:33:10;14.88;;;6.43;;
62401;SDS011;48440;51.224;22.506;2023-04-07T13:35:36;11.55;;;6.45;;
62401;SDS011;48440;51.224;22.506;2023-04-07T13:38:02;13.30;;;6.93;;
62401;SDS011;48440;51.224;22.506;2023-04-07T13:40:28;12.32;;;6.57;;
62401;SDS011;48440;51.224;22.506;2023-04-07T13:42:53;17.70;;;6.53;;
62401;SDS011;48440;51.224;22.506;2023-04-07T13:45:20;13.90;;;7.07;;
62401;SDS011;48440;51.224;22.506;2023-04-07T13:47:45;11.25;;;6.25;;
62401;SDS011;48440;51.224;22.506;2023-04-07T13:50:11;13.05;;;6.45;;
62401;SDS011;48440;51.224;22.506;2023-04-07T13:52:36;11.88;;;6.40;;
62401;SDS011;48440;51.224;22.506;2023-04-07T13:55:02;11.90;;;6.20;;
62401;SDS011;48440;51.224;22.506;2023-04-07T13:57:29;12.07;;;5.82;;
62401;SDS011;48440;51.224;22.506;2023-04-07T13:59:55;10.65;;;5.45;;
62401;SDS011;48440;51.224;22.506;2023-04-07T14:02:21;10.23;;;5.95;;
62401;SDS011;48440;51.224;22.506;2023-04-07T14:04:48;12.85;;;6.45;;
62401;SDS011;48440;51.224;22.506;2023-04-07T14:07:13;11.07;;;6.22;;
62401;SDS011;48440;51.224;22.506;2023-04-07T14:09:38;9.20;;;5.32;;
62401;SDS011;48440;51.224;22.506;2023-04-07T14:12:04;9.43;;;5.47;;
62401;SDS011;48440;51.224;22.506;2023-04-07T14:14:30;9.18;;;6.05;;
62401;SDS011;48440;51.224;22.506;2023-04-07T14:16:55;9.57;;;5.53;;
62401;SDS011;48440;51.224;22.506;2023-04-07T14:19:22;11.05;;;5.60;;
62401;SDS011;48440;51.224;22.506;2023-04-07T14:21:48;12.02;;;6.15;;
62401;SDS011;48440;51.224;22.506;2023-04-07T14:24:18;11.70;;;5.65;;
62401;SDS011;48440;51.224;22.506;2023-04-07T14:26:43;10.80;;;6.18;;
62401;SDS011;48440;51.224;22.506;2023-04-07T14:29:10;13.73;;;6.63;;
62401;SDS011;48440;51.224;22.506;2023-04-07T14:31:39;15.13;;;7.32;;
62401;SDS011;48440;51.224;22.506;2023-04-07T14:34:05;13.63;;;7.38;;
62401;SDS011;48440;51.224;22.506;2023-04-07T14:36:32;18.08;;;8.43;;
62401;SDS011;48440;51.224;22.506;2023-04-07T14:38:58;15.23;;;8.60;;
62401;SDS011;48440;51.224;22.506;2023-04-07T14:41:25;16.20;;;8.20;;
62401;SDS011;48440;51.224;22.506;2023-04-07T14:43:56;19.58;;;8.88;;